Orbital elements of SL-14 DEB
| Launched | 25 October 1978 |
| Flight ended | – |
| Launch site | Plesetsk Missile and Space Complex, Russia |
| Owner | Commonwealth of Independent States (former USSR) |
| NORAD ID | 19450 |
| Date fetched |
Epoch osculation |
Inc. [°] |
Ecc. | RA asc node [hr] |
Arg Peri. [°] |
Mean anom [°] |
Mean motion [rev/day] |
Abs. mag |
| Date fetched |
Epoch osculation |
Inc. [°] |
Ecc. | RA asc node [hr] |
Arg Peri. [°] |
Mean anom [°] |
Mean motion [rev/day] |
Abs. mag |
| 2026 May 06 17:57 | 2026 May 05 05:44:37 | 82.5524 | 0.00157 | 3.1968 | 351.3212 | 164.9330 | 11.98204 | – |
| 2026 May 05 17:57 | 2026 May 05 05:44:37 | 82.5524 | 0.00157 | 3.1968 | 351.3212 | 164.9330 | 11.98204 | – |
| 2026 May 04 17:57 | 2026 Apr 30 05:31:16 | 82.5521 | 0.00159 | 3.3862 | 1.0553 | 164.9330 | 11.98204 | – |
| 2026 May 03 17:57 | 2026 Apr 30 05:31:16 | 82.5521 | 0.00159 | 3.3862 | 1.0553 | 164.9330 | 11.98204 | – |
| 2026 May 02 17:57 | 2026 Apr 30 05:31:16 | 82.5521 | 0.00159 | 3.3862 | 1.0553 | 164.9330 | 11.98204 | – |
| 2026 May 01 17:56 | 2026 Apr 30 05:31:16 | 82.5521 | 0.00159 | 3.3862 | 1.0553 | 164.9330 | 11.98204 | – |
| 2026 Apr 30 17:56 | 2026 Apr 30 05:31:16 | 82.5521 | 0.00159 | 3.3862 | 1.0553 | 164.9330 | 11.98204 | – |
| 2026 Apr 29 17:57 | 2026 Apr 23 07:10:08 | 82.5511 | 0.00162 | 3.6483 | 14.2373 | 164.9330 | 11.98204 | – |
| 2026 Apr 28 17:56 | 2026 Apr 23 07:10:08 | 82.5511 | 0.00162 | 3.6483 | 14.2373 | 164.9330 | 11.98204 | – |
| 2026 Apr 27 17:58 | 2026 Apr 23 07:10:08 | 82.5511 | 0.00162 | 3.6483 | 14.2373 | 164.9330 | 11.98204 | – |
| 2026 Apr 26 17:58 | 2026 Apr 23 07:10:08 | 82.5511 | 0.00162 | 3.6483 | 14.2373 | 164.9330 | 11.98204 | – |
| 2026 Apr 25 17:58 | 2026 Apr 23 07:10:08 | 82.5511 | 0.00162 | 3.6483 | 14.2373 | 164.9330 | 11.98204 | – |
| 2026 Apr 24 17:59 | 2026 Apr 23 07:10:08 | 82.5511 | 0.00162 | 3.6483 | 14.2373 | 164.9330 | 11.98204 | – |
| 2026 Apr 23 17:57 | 2026 Apr 18 20:15:32 | 82.5500 | 0.00163 | 3.8167 | 22.6988 | 164.9330 | 11.98204 | – |
| 2026 Apr 22 17:57 | 2026 Apr 18 20:15:32 | 82.5500 | 0.00163 | 3.8167 | 22.6988 | 164.9330 | 11.98204 | – |
| 2026 Apr 21 17:57 | 2026 Apr 18 20:15:32 | 82.5500 | 0.00163 | 3.8167 | 22.6988 | 164.9330 | 11.98204 | – |
| 2026 Apr 20 17:57 | 2026 Apr 18 20:15:32 | 82.5500 | 0.00163 | 3.8167 | 22.6988 | 164.9330 | 11.98204 | – |
| 2026 Apr 19 17:58 | 2026 Apr 18 20:15:32 | 82.5500 | 0.00163 | 3.8167 | 22.6988 | 164.9330 | 11.98204 | – |
| 2026 Apr 18 17:56 | 2026 Apr 12 19:58:12 | 82.5491 | 0.00164 | 4.0441 | 34.0235 | 164.9330 | 11.98204 | – |
| 2026 Apr 16 17:57 | 2026 Apr 12 19:58:12 | 82.5491 | 0.00164 | 4.0441 | 34.0235 | 164.9330 | 11.98204 | – |
| 2026 Apr 14 17:57 | 2026 Apr 12 19:58:12 | 82.5491 | 0.00164 | 4.0441 | 34.0235 | 164.9330 | 11.98204 | – |
| 2026 Apr 13 17:57 | 2026 Apr 12 19:58:12 | 82.5491 | 0.00164 | 4.0441 | 34.0235 | 164.9330 | 11.98204 | – |
| 2026 Apr 12 17:57 | 2026 Apr 08 08:27:36 | 82.5483 | 0.00165 | 4.2135 | 42.4158 | 164.9330 | 11.98204 | – |
| 2026 Apr 11 17:57 | 2026 Apr 08 08:27:36 | 82.5483 | 0.00165 | 4.2135 | 42.4158 | 164.9330 | 11.98204 | – |
| 2026 Apr 10 17:58 | 2026 Apr 08 08:27:36 | 82.5483 | 0.00165 | 4.2135 | 42.4158 | 164.9330 | 11.98204 | – |
| 2026 Apr 09 18:01 | 2026 Apr 08 08:27:36 | 82.5483 | 0.00165 | 4.2135 | 42.4158 | 164.9330 | 11.98204 | – |